13:22
Airports
Links
Donate
Help keep this website running!
PayPal
Bitcoin
METAR
KCIN 201315Z AUTO 00000KT 10SM CLR M03/M03 A2983 RMK AO2
Current Weather Conditions at KCIN
VFR 13:15:00 20-01-18
Automated station, no observer
Altimeter:29.83 hg
Temp:-3.0°c 27°f
Dew point:-3.0°c 27°f
Wind:0 knots, 0 mph, 0 m/s,
Variable direction
Visibility:10.0 statute miles
(CLR) Clear
Past METAR reports
VFR 12:55:00 20-01-18
Automated station, no observer
Altimeter:29.83 hg
Temp:-2.0°c 28°f
Dew point:-3.0°c 27°f
Wind:0 knots, 0 mph, 0 m/s,
Variable direction
Visibility:10.0 statute miles
(CLR) Clear
KCIN 201255Z AUTO 00000KT 10SM CLR M02/M03 A2983 RMK AO2
VFR 12:35:00 20-01-18
Automated station, no observer
Altimeter:29.82 hg
Temp:-1.0°c 30°f
Dew point:-2.0°c 28°f
Wind:4 knots, 4.6 mph, 2 m/s, from 340°
Visibility:10.0 statute miles
(CLR) Clear
KCIN 201235Z AUTO 34004KT 10SM CLR M01/M02 A2982 RMK AO2
VFR 12:15:00 20-01-18
Automated station, no observer
Altimeter:29.83 hg
Temp:-3.0°c 27°f
Dew point:-3.0°c 27°f
Wind:5 knots, 5.8 mph, 3 m/s, from 320°
Visibility:10.0 statute miles
(CLR) Clear
KCIN 201215Z AUTO 32005KT 10SM CLR M03/M03 A2983 RMK AO2
VFR 11:55:00 20-01-18
Automated station, no observer
Altimeter:29.82 hg
Temp:-3.0°c 27°f
Dew point:-3.0°c 27°f
Wind:4 knots, 4.6 mph, 2 m/s, from 310°
Visibility:10.0 statute miles
(CLR) Clear
KCIN 201155Z AUTO 31004KT 10SM CLR M03/M03 A2982 RMK AO2
VFR 11:35:00 20-01-18
Automated station, no observer
Altimeter:29.81 hg
Temp:-2.0°c 28°f
Dew point:-3.0°c 27°f
Wind:6 knots, 6.9 mph, 3 m/s, from 310°
Visibility:10.0 statute miles
(CLR) Clear
KCIN 201135Z AUTO 31006KT 10SM CLR M02/M03 A2981 RMK AO2
VFR 11:15:00 20-01-18
Automated station, no observer
Altimeter:29.81 hg
Temp:-2.0°c 28°f
Dew point:-3.0°c 27°f
Wind:5 knots, 5.8 mph, 3 m/s, from 300°
Visibility:10.0 statute miles
(CLR) Clear
KCIN 201115Z AUTO 30005KT 10SM CLR M02/M03 A2981 RMK AO2
TAF
No TAF for KCIN
Forecast at KCIN
No Forecast Reports for KCIN